createdAt,value
2018-04-13T00:00:47.834Z,12.20
2018-04-13T00:03:15.441Z,12.20
2018-04-13T00:05:43.014Z,12.20
2018-04-13T00:08:10.586Z,12.20
2018-04-13T00:10:38.170Z,12.10
2018-04-13T00:13:06.545Z,12.30
2018-04-13T00:15:34.213Z,12.20
2018-04-13T00:18:01.769Z,12.30
2018-04-13T00:20:29.349Z,12.30
2018-04-13T00:22:56.918Z,12.30
2018-04-13T00:25:24.526Z,12.40
2018-04-13T00:27:52.106Z,12.30
2018-04-13T00:30:19.790Z,12.30
2018-04-13T00:32:48.137Z,12.30
2018-04-13T00:35:17.241Z,12.30
2018-04-13T00:37:44.793Z,12.30
2018-04-13T00:40:12.374Z,12.20
2018-04-13T00:42:39.945Z,12.30
2018-04-13T00:45:07.530Z,12.20
2018-04-13T00:47:35.094Z,12.10
2018-04-13T00:50:02.676Z,12.00
2018-04-13T00:52:30.243Z,12.00
2018-04-13T00:54:57.821Z,12.00
2018-04-13T00:57:25.381Z,11.90
2018-04-13T00:59:53.018Z,11.90
2018-04-13T01:02:21.391Z,11.80
2018-04-13T01:04:49.815Z,11.70
2018-04-13T01:07:17.381Z,11.70
2018-04-13T01:09:45.727Z,11.90
2018-04-13T01:12:13.281Z,11.90
2018-04-13T01:14:40.882Z,11.90
2018-04-13T01:17:08.468Z,11.80
2018-04-13T01:19:36.794Z,11.90
2018-04-13T01:22:04.370Z,11.90
2018-04-13T01:24:31.964Z,11.90
2018-04-13T01:26:59.592Z,11.90
2018-04-13T01:29:27.198Z,11.90
2018-04-13T01:31:54.794Z,11.90
2018-04-13T01:34:22.362Z,12.00
2018-04-13T01:36:50.077Z,12.00
2018-04-13T01:39:18.432Z,11.90
2018-04-13T01:41:46.109Z,11.90
2018-04-13T01:44:13.661Z,11.90
2018-04-13T01:46:41.237Z,11.80
2018-04-13T01:49:08.834Z,11.90
2018-04-13T01:51:36.418Z,11.90
2018-04-13T01:54:03.986Z,11.80
2018-04-13T01:56:31.565Z,11.80
2018-04-13T01:58:59.886Z,11.90
2018-04-13T02:01:27.471Z,11.80
2018-04-13T02:03:55.045Z,11.80
2018-04-13T02:06:22.633Z,11.70
2018-04-13T02:08:50.219Z,11.60
2018-04-13T02:11:18.012Z,11.60
2018-04-13T02:13:46.390Z,11.60
2018-04-13T02:16:13.975Z,11.60
2018-04-13T02:18:41.533Z,11.70
2018-04-13T02:21:09.114Z,11.60
2018-04-13T02:23:36.678Z,11.70
2018-04-13T02:26:04.349Z,11.60
2018-04-13T02:28:31.921Z,11.60
2018-04-13T02:30:59.517Z,11.70
2018-04-13T02:33:27.077Z,11.60
2018-04-13T02:35:54.637Z,11.60
2018-04-13T02:38:22.218Z,11.50
2018-04-13T02:40:49.771Z,11.60
2018-04-13T02:43:17.353Z,11.60
2018-04-13T02:45:44.943Z,11.60
2018-04-13T02:48:13.490Z,11.60
2018-04-13T02:50:41.173Z,11.60
2018-04-13T02:53:08.779Z,11.60
2018-04-13T02:55:36.441Z,11.70
2018-04-13T02:58:04.013Z,11.60
2018-04-13T03:00:31.590Z,11.60
2018-04-13T03:02:59.257Z,11.60
2018-04-13T03:05:26.836Z,11.70
2018-04-13T03:07:54.616Z,11.70
2018-04-13T03:10:22.221Z,11.60
2018-04-13T03:12:50.892Z,11.50
2018-04-13T03:15:19.279Z,11.50
2018-04-13T03:17:46.849Z,11.50
2018-04-13T03:20:14.414Z,11.40
2018-04-13T03:22:41.997Z,11.50
2018-04-13T03:25:09.565Z,11.50
2018-04-13T03:27:37.917Z,11.60
2018-04-13T03:30:05.482Z,11.60
2018-04-13T03:32:33.065Z,11.50
2018-04-13T03:35:00.640Z,11.40
2018-04-13T03:37:28.329Z,11.40
2018-04-13T03:39:55.902Z,11.40
2018-04-13T03:42:23.490Z,11.40
2018-04-13T03:44:51.051Z,11.50
2018-04-13T03:47:18.658Z,11.60
2018-04-13T03:49:46.990Z,11.60
2018-04-13T03:52:14.554Z,11.60
2018-04-13T03:54:42.131Z,11.60
2018-04-13T03:57:09.690Z,11.50
2018-04-13T03:59:37.342Z,11.50
2018-04-13T04:02:05.742Z,11.60
2018-04-13T04:04:34.269Z,11.50
2018-04-13T04:07:01.934Z,11.50
2018-04-13T04:09:29.539Z,11.50
2018-04-13T04:11:57.147Z,11.30
2018-04-13T04:14:25.679Z,11.10
2018-04-13T04:16:53.985Z,11.10
2018-04-13T04:19:33.538Z,11.10
2018-04-13T04:22:13.054Z,11.10
2018-04-13T04:27:42.824Z,11.20
2018-04-13T04:30:11.159Z,11.30
2018-04-13T04:32:38.758Z,11.30
2018-04-13T04:35:07.136Z,11.10
2018-04-13T04:37:34.740Z,11.10
2018-04-13T04:40:03.535Z,11.20
2018-04-13T04:42:31.859Z,11.20
2018-04-13T04:44:59.577Z,11.20
2018-04-13T04:47:27.934Z,11.30
2018-04-13T04:49:55.509Z,11.20
2018-04-13T04:52:23.093Z,11.40
2018-04-13T04:54:50.673Z,11.60
2018-04-13T04:57:18.241Z,11.70
2018-04-13T04:59:45.905Z,11.70
2018-04-13T05:02:13.477Z,11.80
2018-04-13T05:04:41.090Z,11.80
2018-04-13T05:07:09.455Z,11.90
2018-04-13T05:09:37.084Z,11.90
2018-04-13T05:12:04.950Z,11.90
2018-04-13T05:14:33.163Z,11.90
2018-04-13T05:17:01.387Z,11.90
2018-04-13T05:19:29.084Z,11.90
2018-04-13T05:21:57.645Z,11.90
2018-04-13T05:24:25.231Z,11.90
2018-04-13T05:26:52.899Z,11.90
2018-04-13T05:29:20.487Z,11.80
2018-04-13T05:31:48.141Z,11.80
2018-04-13T05:34:15.699Z,12.00
2018-04-13T05:36:43.282Z,12.00
2018-04-13T05:39:10.876Z,12.00
2018-04-13T05:41:38.563Z,12.00
2018-04-13T05:44:06.931Z,12.00
2018-04-13T05:46:34.615Z,12.00
2018-04-13T05:49:02.269Z,12.00
2018-04-13T05:51:30.169Z,12.00
2018-04-13T05:53:57.737Z,11.90
2018-04-13T05:56:26.087Z,12.10
2018-04-13T05:58:53.654Z,12.10
2018-04-13T06:01:21.233Z,12.20
2018-04-13T06:03:48.794Z,12.20
2018-04-13T06:06:16.413Z,12.20
2018-04-13T06:08:43.986Z,12.30
2018-04-13T06:11:11.665Z,12.40
2018-04-13T06:13:39.271Z,12.40
2018-04-13T06:16:06.879Z,12.40
2018-04-13T06:18:34.546Z,12.30
2018-04-13T06:21:02.182Z,12.30
2018-04-13T06:23:29.761Z,12.30
2018-04-13T06:25:57.362Z,12.40
2018-04-13T06:28:24.933Z,12.40
2018-04-13T06:30:52.494Z,12.40
2018-04-13T06:33:20.068Z,12.30
2018-04-13T06:35:47.630Z,12.30
2018-04-13T06:38:15.220Z,12.30
2018-04-13T06:40:42.782Z,12.30
2018-04-13T06:43:10.417Z,12.30
2018-04-13T06:45:38.068Z,12.30
2018-04-13T06:48:05.670Z,12.20
2018-04-13T06:50:34.026Z,12.20
2018-04-13T06:53:01.665Z,12.20
2018-04-13T06:55:29.369Z,12.30
2018-04-13T06:57:57.035Z,12.20
2018-04-13T07:00:24.609Z,12.20
2018-04-13T07:02:52.205Z,12.20
2018-04-13T07:05:19.786Z,12.30
2018-04-13T07:07:47.373Z,12.30
2018-04-13T07:10:14.944Z,12.20
2018-04-13T07:12:42.633Z,12.30
2018-04-13T07:15:10.993Z,12.50
2018-04-13T07:17:38.678Z,12.50
2018-04-13T07:20:06.354Z,12.40
2018-04-13T07:22:34.163Z,12.40
2018-04-13T07:25:01.786Z,12.50
2018-04-13T07:27:29.649Z,12.60
2018-04-13T07:29:57.249Z,12.50
2018-04-13T07:32:24.915Z,12.50
2018-04-13T07:34:52.473Z,12.50
2018-04-13T07:37:20.081Z,12.50
2018-04-13T07:39:47.645Z,12.50
2018-04-13T07:42:15.307Z,12.40
2018-04-13T07:44:42.981Z,12.40
2018-04-13T07:47:11.552Z,12.40
2018-04-13T07:49:38.937Z,12.50
2018-04-13T07:52:06.804Z,12.60
2018-04-13T07:54:35.046Z,12.70
2018-04-13T07:57:03.416Z,12.90
2018-04-13T07:59:31.030Z,12.80
2018-04-13T08:01:58.931Z,13.10
2018-04-13T08:04:26.324Z,13.20
2018-04-13T08:06:53.886Z,13.20
2018-04-13T08:09:21.470Z,13.20
2018-04-13T08:11:49.043Z,13.10
2018-04-13T08:14:16.629Z,13.30
2018-04-13T08:16:44.198Z,13.20
2018-04-13T08:19:11.788Z,13.30
2018-04-13T08:21:40.121Z,13.50
2018-04-13T08:24:07.725Z,13.50
2018-04-13T08:26:35.314Z,13.50
2018-04-13T08:29:02.934Z,13.50
2018-04-13T08:31:30.595Z,13.50
2018-04-13T08:33:58.233Z,13.50
2018-04-13T08:36:26.584Z,13.30
2018-04-13T08:38:54.193Z,13.30
2018-04-13T08:41:21.767Z,13.30
2018-04-13T08:43:49.422Z,13.30
2018-04-13T08:46:16.991Z,13.20
2018-04-13T08:48:44.760Z,13.40
2018-04-13T08:51:12.188Z,13.50
2018-04-13T08:53:39.803Z,13.80
2018-04-13T08:56:07.397Z,14.00
2018-04-13T08:58:34.991Z,14.30
2018-04-13T09:01:03.498Z,14.30
2018-04-13T09:03:31.085Z,14.30
2018-04-13T09:05:58.901Z,14.10
2018-04-13T09:08:26.465Z,14.10
2018-04-13T09:10:54.046Z,14.20
2018-04-13T09:13:21.725Z,14.40
2018-04-13T09:15:49.310Z,14.20
2018-04-13T09:18:16.886Z,14.20
2018-04-13T09:20:46.110Z,14.00
2018-04-13T09:23:14.454Z,14.00
2018-04-13T09:25:42.038Z,14.00
2018-04-13T09:28:09.614Z,14.10
2018-04-13T09:30:37.305Z,14.20
2018-04-13T09:33:04.906Z,14.00
2018-04-13T09:35:33.282Z,14.20
2018-04-13T09:38:01.831Z,14.50
2018-04-13T09:40:29.498Z,14.50
2018-04-13T09:42:57.074Z,14.60
2018-04-13T09:45:24.668Z,14.70
2018-04-13T09:47:52.234Z,14.70
2018-04-13T09:50:19.817Z,14.40
2018-04-13T09:52:47.389Z,14.70
2018-04-13T09:55:14.974Z,14.80
2018-04-13T09:57:42.529Z,15.10
2018-04-13T10:00:10.112Z,15.40
2018-04-13T10:02:37.693Z,15.50
2018-04-13T10:05:11.076Z,15.60
2018-04-13T10:07:38.649Z,15.60
2018-04-13T10:10:06.355Z,15.60
2018-04-13T10:12:34.724Z,15.40
2018-04-13T10:15:02.334Z,15.40
2018-04-13T10:17:29.972Z,15.70
2018-04-13T10:19:58.436Z,16.20
2018-04-13T10:22:26.023Z,16.20
2018-04-13T10:24:53.605Z,16.20
2018-04-13T10:27:21.186Z,16.10
2018-04-13T10:29:48.747Z,15.90
2018-04-13T10:32:16.425Z,15.80
2018-04-13T10:34:44.027Z,15.70
2018-04-13T10:37:11.682Z,15.60
2018-04-13T10:39:39.420Z,15.60
2018-04-13T10:42:07.021Z,15.50
2018-04-13T10:44:34.613Z,15.40
2018-04-13T10:47:03.002Z,15.30
2018-04-13T10:49:30.681Z,15.30
2018-04-13T10:51:58.314Z,15.30
2018-04-13T10:54:25.914Z,15.20
2018-04-13T10:56:53.501Z,15.00
2018-04-13T10:59:21.062Z,14.90
2018-04-13T11:01:48.696Z,14.80
2018-04-13T11:04:16.262Z,14.80
2018-04-13T11:06:43.841Z,14.80
2018-04-13T11:09:11.441Z,14.60
2018-04-13T11:11:39.142Z,14.50
2018-04-13T11:14:06.718Z,14.40
2018-04-13T11:16:35.101Z,14.10
2018-04-13T11:19:02.699Z,14.10
2018-04-13T11:21:30.308Z,14.00
2018-04-13T11:23:58.007Z,13.90
2018-04-13T11:26:25.672Z,13.90
2018-04-13T11:28:53.249Z,13.70
2018-04-13T11:31:20.827Z,13.80
2018-04-13T11:33:48.493Z,13.70
2018-04-13T11:36:16.059Z,13.80
2018-04-13T11:38:43.637Z,13.80
2018-04-13T11:41:11.194Z,13.70
2018-04-13T11:43:38.797Z,13.60
2018-04-13T11:46:06.487Z,13.50
2018-04-13T11:48:34.145Z,13.40
2018-04-13T11:51:01.729Z,13.40
2018-04-13T11:53:30.297Z,13.60
2018-04-13T11:55:57.879Z,13.50
2018-04-13T11:58:25.461Z,13.50
2018-04-13T12:00:53.029Z,13.40
2018-04-13T12:03:20.619Z,13.50
2018-04-13T12:05:48.974Z,13.90
2018-04-13T12:08:16.570Z,14.00
2018-04-13T12:10:44.233Z,13.90
2018-04-13T12:13:11.818Z,13.80
2018-04-13T12:15:39.575Z,14.00
2018-04-13T12:18:07.270Z,14.50
2018-04-13T12:20:34.884Z,15.10
2018-04-13T12:23:02.521Z,15.50
2018-04-13T12:25:30.920Z,16.10
2018-04-13T12:27:58.579Z,16.10
2018-04-13T12:30:26.159Z,16.20
2018-04-13T12:32:53.745Z,16.50
2018-04-13T12:35:22.074Z,16.40
2018-04-13T12:37:49.674Z,16.40
2018-04-13T12:40:17.236Z,16.40
2018-04-13T12:42:44.802Z,16.50
2018-04-13T12:45:12.390Z,16.40
2018-04-13T12:47:39.970Z,16.50
2018-04-13T12:50:07.573Z,16.60
2018-04-13T12:52:35.956Z,16.30
2018-04-13T12:55:04.571Z,16.50
2018-04-13T12:57:32.985Z,16.70
2018-04-13T13:00:00.654Z,16.60
2018-04-13T13:02:28.234Z,16.80
2018-04-13T13:04:55.942Z,16.90
2018-04-13T13:07:23.501Z,17.00
2018-04-13T13:09:51.078Z,16.90
2018-04-13T13:12:18.653Z,16.90
2018-04-13T13:14:46.329Z,16.80
2018-04-13T13:17:13.896Z,16.80
2018-04-13T13:19:41.502Z,16.70
2018-04-13T13:22:09.102Z,16.60
2018-04-13T13:24:36.722Z,16.60
2018-04-13T13:27:04.310Z,16.70
2018-04-13T13:29:32.705Z,16.70
2018-04-13T13:32:00.578Z,16.70
2018-04-13T13:34:28.262Z,16.70
2018-04-13T13:36:56.610Z,16.70
2018-04-13T13:39:24.191Z,16.70
2018-04-13T13:41:51.746Z,16.70
2018-04-13T13:44:19.318Z,16.60
2018-04-13T13:46:46.877Z,16.70
2018-04-13T13:49:14.453Z,16.80
2018-04-13T13:51:42.014Z,16.80
2018-04-13T13:54:09.682Z,16.80
2018-04-13T13:56:38.044Z,16.90
2018-04-13T13:59:06.443Z,17.00
2018-04-13T14:01:34.012Z,16.90
2018-04-13T14:04:01.900Z,17.10
2018-04-13T14:06:29.561Z,17.00
2018-04-13T14:08:57.910Z,16.70
2018-04-13T14:11:25.491Z,16.70
2018-04-13T14:13:53.054Z,16.80
2018-04-13T14:16:20.634Z,16.90
2018-04-13T14:18:48.234Z,17.00
2018-04-13T14:21:15.896Z,17.10
2018-04-13T14:23:43.496Z,17.30
2018-04-13T14:26:11.100Z,17.40
2018-04-13T14:28:38.690Z,17.50
2018-04-13T14:31:06.299Z,17.40
2018-04-13T14:33:33.991Z,17.30
2018-04-13T14:36:01.717Z,17.20
2018-04-13T14:38:29.337Z,17.00
2018-04-13T14:40:56.945Z,17.10
2018-04-13T14:43:24.502Z,17.20
2018-04-13T14:45:52.841Z,17.40
2018-04-13T14:48:20.397Z,17.40
2018-04-13T14:50:47.973Z,17.50
2018-04-13T14:53:15.525Z,17.70
2018-04-13T14:55:43.110Z,17.90
2018-04-13T14:58:10.703Z,18.20
2018-04-13T15:00:38.304Z,18.30
2018-04-13T15:03:06.662Z,18.80
2018-04-13T15:05:34.279Z,18.80
2018-04-13T15:08:02.633Z,18.90
2018-04-13T15:10:30.290Z,18.80
2018-04-13T15:12:57.853Z,18.80
2018-04-13T15:15:25.430Z,18.70
2018-04-13T15:17:52.986Z,18.70
2018-04-13T15:20:20.560Z,18.60
2018-04-13T15:22:48.178Z,18.50
2018-04-13T15:25:15.765Z,18.40
2018-04-13T15:27:43.345Z,18.20
2018-04-13T15:30:11.669Z,17.90
2018-04-13T15:32:39.277Z,17.90
2018-04-13T15:35:06.877Z,17.90
2018-04-13T15:37:35.294Z,17.70
2018-04-13T15:40:02.928Z,17.70
2018-04-13T15:42:31.393Z,17.70
2018-04-13T15:44:59.507Z,17.70
2018-04-13T15:47:27.866Z,17.70
2018-04-13T15:49:55.461Z,17.70
2018-04-13T15:52:23.109Z,17.60
2018-04-13T15:54:50.675Z,17.60
2018-04-13T15:57:18.259Z,17.60
2018-04-13T15:59:45.817Z,17.50
2018-04-13T16:02:13.393Z,17.40
2018-04-13T16:04:40.981Z,17.40
2018-04-13T16:07:08.694Z,17.30
2018-04-13T16:09:37.083Z,17.30
2018-04-13T16:12:05.478Z,17.10
2018-04-13T16:14:33.043Z,17.10
2018-04-13T16:17:00.659Z,17.10
2018-04-13T16:19:28.345Z,16.90
2018-04-13T16:21:55.973Z,16.90
2018-04-13T16:24:24.717Z,16.80
2018-04-13T16:26:52.615Z,16.70
2018-04-13T16:29:20.813Z,16.70
2018-04-13T16:31:48.490Z,16.60
2018-04-13T16:34:16.066Z,16.50
2018-04-13T16:36:43.649Z,16.40
2018-04-13T16:39:11.202Z,16.30
2018-04-13T16:41:38.806Z,16.20
2018-04-13T16:44:06.374Z,16.10
2018-04-13T16:46:34.190Z,16.10
2018-04-13T16:49:01.892Z,16.00
2018-04-13T16:51:29.528Z,16.00
2018-04-13T16:53:57.557Z,15.90
2018-04-13T16:56:25.559Z,15.90
2018-04-13T16:58:53.697Z,15.80
2018-04-13T17:01:22.365Z,15.40
2018-04-13T17:03:49.997Z,15.40
2018-04-13T17:06:18.370Z,15.30
2018-04-13T17:08:45.946Z,15.30
2018-04-13T17:11:13.506Z,15.20
2018-04-13T17:13:41.180Z,15.00
2018-04-13T17:16:08.739Z,14.90
2018-04-13T17:18:36.318Z,14.80
2018-04-13T17:21:03.883Z,14.70
2018-04-13T17:23:31.461Z,14.60
2018-04-13T17:25:59.061Z,14.50
2018-04-13T17:28:26.662Z,14.40
2018-04-13T17:30:55.038Z,14.10
2018-04-13T17:33:22.663Z,14.10
2018-04-13T17:35:50.238Z,14.00
2018-04-13T17:38:17.845Z,13.90
2018-04-13T17:40:45.417Z,13.80
2018-04-13T17:43:13.010Z,13.70
2018-04-13T17:45:40.674Z,13.60
2018-04-13T17:48:08.256Z,13.40
2018-04-13T17:50:35.817Z,13.30
2018-04-13T17:53:03.557Z,13.20
2018-04-13T17:55:31.906Z,13.00
2018-04-13T17:58:01.418Z,12.90
2018-04-13T18:00:30.910Z,12.90
2018-04-13T18:02:59.802Z,12.80
2018-04-13T18:05:28.300Z,12.70
2018-04-13T18:07:56.695Z,12.60
2018-04-13T18:10:25.175Z,12.50
2018-04-13T18:12:54.974Z,12.30
2018-04-13T18:15:25.255Z,12.20
2018-04-13T18:17:53.795Z,12.10
2018-04-13T18:20:21.637Z,12.20
2018-04-13T18:22:49.386Z,12.20
2018-04-13T18:25:16.969Z,12.10
2018-04-13T18:27:44.576Z,12.10
2018-04-13T18:30:12.933Z,12.00
2018-04-13T18:32:40.481Z,12.00
2018-04-13T18:35:08.053Z,11.90
2018-04-13T18:37:35.613Z,11.90
2018-04-13T18:40:03.241Z,11.90
2018-04-13T18:42:30.833Z,11.90
2018-04-13T18:44:58.441Z,11.90
2018-04-13T18:47:26.030Z,11.80
2018-04-13T18:49:53.825Z,11.80
2018-04-13T18:52:22.225Z,11.80
2018-04-13T18:54:51.179Z,11.80
2018-04-13T18:57:18.752Z,11.80
2018-04-13T18:59:46.333Z,11.80
2018-04-13T19:02:13.895Z,11.70
2018-04-13T19:04:41.486Z,11.70
2018-04-13T19:07:09.090Z,11.70
2018-04-13T19:09:38.201Z,11.70
2018-04-13T19:12:05.754Z,11.70
2018-04-13T19:14:33.329Z,11.70
2018-04-13T19:17:01.092Z,11.60
2018-04-13T19:19:28.741Z,11.50
2018-04-13T19:21:57.084Z,11.50
2018-04-13T19:24:24.833Z,11.50
2018-04-13T19:26:52.458Z,11.40
2018-04-13T19:29:20.859Z,11.40
2018-04-13T19:31:49.210Z,11.40
2018-04-13T19:34:16.762Z,11.30
2018-04-13T19:36:44.338Z,11.20
2018-04-13T19:39:11.950Z,11.20
2018-04-13T19:41:39.609Z,11.20
2018-04-13T19:44:07.161Z,11.20
2018-04-13T19:46:34.825Z,11.10
2018-04-13T19:49:02.437Z,11.00
2018-04-13T19:51:30.038Z,11.00
2018-04-13T19:53:58.464Z,10.80
2018-04-13T19:56:26.073Z,10.70
2018-04-13T19:58:53.729Z,10.80
2018-04-13T20:01:21.487Z,10.70
2018-04-13T20:03:49.136Z,10.70
2018-04-13T20:06:16.689Z,10.60
2018-04-13T20:08:44.340Z,10.70
2018-04-13T20:11:12.009Z,10.70
2018-04-13T20:13:39.574Z,10.70
2018-04-13T20:16:07.157Z,10.60
2018-04-13T20:18:34.800Z,10.60
2018-04-13T20:21:02.381Z,10.70
2018-04-13T20:23:30.048Z,10.60
2018-04-13T20:25:57.651Z,10.60
2018-04-13T20:28:25.256Z,10.70
2018-04-13T20:30:53.657Z,10.60
2018-04-13T20:33:21.242Z,10.60
2018-04-13T20:35:48.862Z,10.60
2018-04-13T20:38:16.438Z,10.50
2018-04-13T20:40:44.011Z,10.50
2018-04-13T20:43:11.589Z,10.40
2018-04-13T20:45:39.155Z,10.30
2018-04-13T20:48:06.729Z,10.20
2018-04-13T20:50:34.301Z,10.20
2018-04-13T20:53:01.884Z,10.10
2018-04-13T20:55:29.463Z,10.10
2018-04-13T20:57:57.868Z,10.00
2018-04-13T21:00:26.225Z,9.90
2018-04-13T21:02:54.742Z,9.90
2018-04-13T21:05:22.498Z,9.90
2018-04-13T21:07:50.170Z,9.90
2018-04-13T21:10:17.741Z,9.90
2018-04-13T21:12:45.413Z,9.80
2018-04-13T21:15:13.437Z,9.90
2018-04-13T21:17:41.779Z,9.90
2018-04-13T21:20:09.338Z,9.90
2018-04-13T21:22:36.918Z,10.00
2018-04-13T21:25:04.726Z,10.00
2018-04-13T21:27:32.306Z,10.10
2018-04-13T21:29:59.880Z,10.00
2018-04-13T21:32:28.235Z,9.90
2018-04-13T21:34:55.807Z,9.80
2018-04-13T21:37:23.473Z,9.80
2018-04-13T21:39:51.446Z,9.90
2018-04-13T21:42:19.045Z,9.80
2018-04-13T21:44:46.596Z,9.80
2018-04-13T21:47:14.169Z,9.90
2018-04-13T21:49:41.766Z,9.90
2018-04-13T21:52:09.346Z,9.90
2018-04-13T21:54:37.001Z,9.90
2018-04-13T21:57:04.553Z,10.10
2018-04-13T21:59:32.153Z,10.10
2018-04-13T22:01:59.733Z,10.10
2018-04-13T22:04:27.417Z,9.90
2018-04-13T22:06:55.010Z,9.90
2018-04-13T22:09:23.740Z,9.80
2018-04-13T22:11:51.361Z,9.80
2018-04-13T22:14:31.406Z,9.80
2018-04-13T22:16:58.971Z,9.80
2018-04-13T22:19:26.570Z,9.80
2018-04-13T22:21:54.171Z,9.80
2018-04-13T22:24:21.855Z,9.70
2018-04-13T22:26:49.426Z,9.70
2018-04-13T22:29:17.000Z,9.70
2018-04-13T22:31:44.553Z,9.70
2018-04-13T22:34:12.916Z,9.60
2018-04-13T22:36:40.582Z,9.60
2018-04-13T22:39:08.170Z,9.60
2018-04-13T22:41:35.735Z,9.60
2018-04-13T22:44:03.312Z,9.60
2018-04-13T22:46:30.867Z,9.60
2018-04-13T22:48:58.474Z,9.60
2018-04-13T22:51:26.797Z,9.70
2018-04-13T22:53:54.426Z,9.70
2018-04-13T22:56:22.019Z,9.60
2018-04-13T22:58:50.389Z,9.70
2018-04-13T23:01:18.831Z,9.60
2018-04-13T23:03:46.615Z,9.60
2018-04-13T23:06:14.213Z,9.60
2018-04-13T23:08:41.793Z,9.60
2018-04-13T23:11:09.369Z,9.60
2018-04-13T23:13:37.034Z,9.50
2018-04-13T23:16:04.609Z,9.60
2018-04-13T23:18:32.168Z,9.60
2018-04-13T23:20:59.757Z,9.70
2018-04-13T23:23:27.337Z,9.60
2018-04-13T23:25:54.916Z,9.60
2018-04-13T23:28:22.511Z,9.60
2018-04-13T23:30:50.860Z,9.60
2018-04-13T23:33:18.431Z,9.60
2018-04-13T23:35:46.012Z,9.60
2018-04-13T23:38:13.588Z,9.50
2018-04-13T23:40:41.176Z,9.50
2018-04-13T23:43:09.494Z,9.60
2018-04-13T23:45:37.105Z,9.60
2018-04-13T23:48:04.653Z,9.60
2018-04-13T23:50:32.254Z,9.60
2018-04-13T23:52:59.839Z,9.50
2018-04-13T23:55:28.221Z,9.50
2018-04-13T23:57:55.810Z,9.50
